sensor_id;sensor_type;location;lat;lon;timestamp;P1;durP1;ratioP1;P2;durP2;ratioP2
42702;SDS011;28341;52.064;4.920;2022-10-30T00:00:40;26.08;;;14.48;;
42702;SDS011;28341;52.064;4.920;2022-10-30T00:02:45;23.02;;;14.77;;
42702;SDS011;28341;52.064;4.920;2022-10-30T00:04:50;20.05;;;13.90;;
42702;SDS011;28341;52.064;4.920;2022-10-30T00:06:54;19.95;;;13.77;;
42702;SDS011;28341;52.064;4.920;2022-10-30T00:08:59;27.42;;;16.25;;
42702;SDS011;28341;52.064;4.920;2022-10-30T00:11:04;23.63;;;14.13;;
42702;SDS011;28341;52.064;4.920;2022-10-30T00:13:09;24.05;;;14.00;;
42702;SDS011;28341;52.064;4.920;2022-10-30T00:15:14;22.60;;;13.63;;
42702;SDS011;28341;52.064;4.920;2022-10-30T00:17:22;30.20;;;15.18;;
42702;SDS011;28341;52.064;4.920;2022-10-30T00:19:26;28.27;;;14.10;;
42702;SDS011;28341;52.064;4.920;2022-10-30T00:21:31;21.65;;;14.63;;
42702;SDS011;28341;52.064;4.920;2022-10-30T00:23:35;26.30;;;15.18;;
42702;SDS011;28341;52.064;4.920;2022-10-30T00:25:40;20.88;;;13.57;;
42702;SDS011;28341;52.064;4.920;2022-10-30T00:27:44;24.05;;;14.23;;
42702;SDS011;28341;52.064;4.920;2022-10-30T00:29:49;27.30;;;15.18;;
42702;SDS011;28341;52.064;4.920;2022-10-30T00:31:53;24.75;;;14.80;;
42702;SDS011;28341;52.064;4.920;2022-10-30T00:34:01;24.15;;;14.98;;
42702;SDS011;28341;52.064;4.920;2022-10-30T00:36:05;23.73;;;14.68;;
42702;SDS011;28341;52.064;4.920;2022-10-30T00:38:11;27.67;;;14.07;;
42702;SDS011;28341;52.064;4.920;2022-10-30T00:40:16;26.23;;;15.38;;
42702;SDS011;28341;52.064;4.920;2022-10-30T00:42:21;24.80;;;14.43;;
42702;SDS011;28341;52.064;4.920;2022-10-30T00:44:34;22.17;;;14.25;;
42702;SDS011;28341;52.064;4.920;2022-10-30T00:46:42;27.65;;;14.77;;
42702;SDS011;28341;52.064;4.920;2022-10-30T00:48:48;19.83;;;14.15;;
42702;SDS011;28341;52.064;4.920;2022-10-30T00:50:58;24.67;;;14.75;;
42702;SDS011;28341;52.064;4.920;2022-10-30T00:53:04;30.23;;;15.25;;
42702;SDS011;28341;52.064;4.920;2022-10-30T00:55:12;29.35;;;15.00;;
42702;SDS011;28341;52.064;4.920;2022-10-30T00:57:19;26.05;;;15.25;;
42702;SDS011;28341;52.064;4.920;2022-10-30T00:59:25;27.20;;;15.13;;
42702;SDS011;28341;52.064;4.920;2022-10-30T01:01:34;23.92;;;15.25;;
42702;SDS011;28341;52.064;4.920;2022-10-30T01:03:41;23.77;;;15.38;;
42702;SDS011;28341;52.064;4.920;2022-10-30T01:05:46;30.77;;;15.00;;
42702;SDS011;28341;52.064;4.920;2022-10-30T01:07:57;22.13;;;14.13;;
42702;SDS011;28341;52.064;4.920;2022-10-30T01:10:01;22.23;;;13.88;;
42702;SDS011;28341;52.064;4.920;2022-10-30T01:12:07;21.42;;;14.30;;
42702;SDS011;28341;52.064;4.920;2022-10-30T01:14:12;22.83;;;14.02;;
42702;SDS011;28341;52.064;4.920;2022-10-30T01:16:29;23.02;;;13.82;;
42702;SDS011;28341;52.064;4.920;2022-10-30T01:19:02;22.38;;;14.23;;
42702;SDS011;28341;52.064;4.920;2022-10-30T01:21:26;24.92;;;13.98;;
42702;SDS011;28341;52.064;4.920;2022-10-30T01:23:46;25.73;;;13.10;;
42702;SDS011;28341;52.064;4.920;2022-10-30T01:26:00;28.17;;;15.98;;
42702;SDS011;28341;52.064;4.920;2022-10-30T01:28:19;27.08;;;15.07;;
42702;SDS011;28341;52.064;4.920;2022-10-30T01:30:40;24.05;;;14.38;;
42702;SDS011;28341;52.064;4.920;2022-10-30T01:33:02;23.85;;;13.90;;
42702;SDS011;28341;52.064;4.920;2022-10-30T01:35:17;25.02;;;14.35;;
42702;SDS011;28341;52.064;4.920;2022-10-30T01:37:29;25.83;;;14.32;;
42702;SDS011;28341;52.064;4.920;2022-10-30T01:39:39;24.00;;;14.63;;
42702;SDS011;28341;52.064;4.920;2022-10-30T01:41:44;22.58;;;14.95;;
42702;SDS011;28341;52.064;4.920;2022-10-30T01:43:49;24.20;;;14.30;;
42702;SDS011;28341;52.064;4.920;2022-10-30T01:46:03;23.80;;;13.68;;
42702;SDS011;28341;52.064;4.920;2022-10-30T01:48:48;24.90;;;13.93;;
42702;SDS011;28341;52.064;4.920;2022-10-30T01:51:02;23.88;;;14.45;;
42702;SDS011;28341;52.064;4.920;2022-10-30T01:53:16;24.60;;;14.77;;
42702;SDS011;28341;52.064;4.920;2022-10-30T01:55:35;21.17;;;14.13;;
42702;SDS011;28341;52.064;4.920;2022-10-30T01:57:47;27.38;;;15.15;;
42702;SDS011;28341;52.064;4.920;2022-10-30T01:59:58;21.50;;;13.73;;
42702;SDS011;28341;52.064;4.920;2022-10-30T02:02:15;29.50;;;16.15;;
42702;SDS011;28341;52.064;4.920;2022-10-30T02:04:20;19.17;;;13.50;;
42702;SDS011;28341;52.064;4.920;2022-10-30T02:06:26;32.03;;;15.88;;
42702;SDS011;28341;52.064;4.920;2022-10-30T02:08:30;28.77;;;15.50;;
42702;SDS011;28341;52.064;4.920;2022-10-30T02:10:38;27.98;;;15.75;;
42702;SDS011;28341;52.064;4.920;2022-10-30T02:12:44;25.92;;;15.50;;
42702;SDS011;28341;52.064;4.920;2022-10-30T02:14:49;26.23;;;15.65;;
42702;SDS011;28341;52.064;4.920;2022-10-30T02:16:57;23.85;;;15.60;;
42702;SDS011;28341;52.064;4.920;2022-10-30T02:19:04;28.65;;;15.82;;
42702;SDS011;28341;52.064;4.920;2022-10-30T02:21:11;23.20;;;14.45;;
42702;SDS011;28341;52.064;4.920;2022-10-30T02:23:17;24.48;;;15.82;;
42702;SDS011;28341;52.064;4.920;2022-10-30T02:25:23;25.38;;;16.50;;
42702;SDS011;28341;52.064;4.920;2022-10-30T02:27:27;21.35;;;15.55;;
42702;SDS011;28341;52.064;4.920;2022-10-30T02:29:32;27.90;;;15.60;;
42702;SDS011;28341;52.064;4.920;2022-10-30T02:31:36;29.65;;;15.52;;
42702;SDS011;28341;52.064;4.920;2022-10-30T02:33:42;26.40;;;16.52;;
42702;SDS011;28341;52.064;4.920;2022-10-30T02:35:48;33.20;;;15.60;;
42702;SDS011;28341;52.064;4.920;2022-10-30T02:37:56;30.23;;;15.95;;
42702;SDS011;28341;52.064;4.920;2022-10-30T02:40:01;28.60;;;16.42;;
42702;SDS011;28341;52.064;4.920;2022-10-30T02:42:07;26.33;;;16.40;;
42702;SDS011;28341;52.064;4.920;2022-10-30T02:44:11;25.48;;;15.73;;
42702;SDS011;28341;52.064;4.920;2022-10-30T02:46:16;29.90;;;16.83;;
42702;SDS011;28341;52.064;4.920;2022-10-30T02:48:21;29.55;;;16.33;;
42702;SDS011;28341;52.064;4.920;2022-10-30T02:50:25;29.70;;;16.50;;
42702;SDS011;28341;52.064;4.920;2022-10-30T02:52:30;27.67;;;15.93;;
42702;SDS011;28341;52.064;4.920;2022-10-30T02:54:37;30.58;;;16.20;;
42702;SDS011;28341;52.064;4.920;2022-10-30T02:56:42;27.48;;;16.10;;
42702;SDS011;28341;52.064;4.920;2022-10-30T02:58:48;23.63;;;15.18;;
42702;SDS011;28341;52.064;4.920;2022-10-30T03:00:52;29.45;;;15.80;;
42702;SDS011;28341;52.064;4.920;2022-10-30T03:02:57;24.17;;;15.50;;
42702;SDS011;28341;52.064;4.920;2022-10-30T03:05:01;27.23;;;15.88;;
42702;SDS011;28341;52.064;4.920;2022-10-30T03:07:06;31.35;;;15.88;;
42702;SDS011;28341;52.064;4.920;2022-10-30T03:09:10;27.58;;;14.55;;
42702;SDS011;28341;52.064;4.920;2022-10-30T03:11:32;23.08;;;15.82;;
42702;SDS011;28341;52.064;4.920;2022-10-30T03:13:49;26.73;;;15.05;;
42702;SDS011;28341;52.064;4.920;2022-10-30T03:16:08;28.08;;;16.45;;
42702;SDS011;28341;52.064;4.920;2022-10-30T03:18:27;27.55;;;15.73;;
42702;SDS011;28341;52.064;4.920;2022-10-30T03:20:45;25.10;;;15.48;;
42702;SDS011;28341;52.064;4.920;2022-10-30T03:23:03;28.15;;;16.15;;
42702;SDS011;28341;52.064;4.920;2022-10-30T03:25:21;31.63;;;16.92;;
42702;SDS011;28341;52.064;4.920;2022-10-30T03:27:42;31.67;;;18.10;;
42702;SDS011;28341;52.064;4.920;2022-10-30T03:29:59;23.58;;;15.20;;
42702;SDS011;28341;52.064;4.920;2022-10-30T03:32:17;30.02;;;15.85;;
42702;SDS011;28341;52.064;4.920;2022-10-30T03:34:36;25.30;;;16.02;;
42702;SDS011;28341;52.064;4.920;2022-10-30T03:36:53;29.17;;;16.85;;
42702;SDS011;28341;52.064;4.920;2022-10-30T03:39:11;24.48;;;16.73;;
42702;SDS011;28341;52.064;4.920;2022-10-30T03:41:29;25.15;;;16.63;;
42702;SDS011;28341;52.064;4.920;2022-10-30T03:43:50;30.90;;;17.10;;
42702;SDS011;28341;52.064;4.920;2022-10-30T03:46:08;28.48;;;16.83;;
42702;SDS011;28341;52.064;4.920;2022-10-30T03:48:26;25.65;;;15.30;;
42702;SDS011;28341;52.064;4.920;2022-10-30T03:50:45;36.15;;;17.58;;
42702;SDS011;28341;52.064;4.920;2022-10-30T03:53:02;30.80;;;17.40;;
42702;SDS011;28341;52.064;4.920;2022-10-30T13:07:18;17.95;;;10.32;;
42702;SDS011;28341;52.064;4.920;2022-10-30T13:09:26;16.98;;;9.10;;
42702;SDS011;28341;52.064;4.920;2022-10-30T13:11:37;18.13;;;9.85;;
42702;SDS011;28341;52.064;4.920;2022-10-30T13:13:47;24.42;;;10.50;;
42702;SDS011;28341;52.064;4.920;2022-10-30T13:15:54;15.00;;;9.30;;
42702;SDS011;28341;52.064;4.920;2022-10-30T13:18:05;16.50;;;10.50;;
42702;SDS011;28341;52.064;4.920;2022-10-30T13:20:18;19.45;;;9.70;;
42702;SDS011;28341;52.064;4.920;2022-10-30T13:22:26;18.88;;;9.20;;
42702;SDS011;28341;52.064;4.920;2022-10-30T13:24:41;23.60;;;11.02;;
42702;SDS011;28341;52.064;4.920;2022-10-30T13:26:51;14.68;;;9.98;;
42702;SDS011;28341;52.064;4.920;2022-10-30T13:29:01;15.57;;;9.75;;
42702;SDS011;28341;52.064;4.920;2022-10-30T13:31:17;19.30;;;10.07;;
42702;SDS011;28341;52.064;4.920;2022-10-30T13:33:35;17.65;;;10.10;;
42702;SDS011;28341;52.064;4.920;2022-10-30T13:35:46;20.13;;;10.88;;
42702;SDS011;28341;52.064;4.920;2022-10-30T13:38:01;17.20;;;10.10;;
42702;SDS011;28341;52.064;4.920;2022-10-30T13:40:18;16.70;;;10.55;;
42702;SDS011;28341;52.064;4.920;2022-10-30T13:42:32;20.13;;;9.95;;
42702;SDS011;28341;52.064;4.920;2022-10-30T13:44:47;15.68;;;8.93;;
42702;SDS011;28341;52.064;4.920;2022-10-30T13:47:05;19.92;;;10.25;;
42702;SDS011;28341;52.064;4.920;2022-10-30T13:49:23;16.17;;;8.57;;
42702;SDS011;28341;52.064;4.920;2022-10-30T13:51:39;15.85;;;9.20;;
42702;SDS011;28341;52.064;4.920;2022-10-30T13:53:53;18.52;;;10.30;;
42702;SDS011;28341;52.064;4.920;2022-10-30T13:56:06;17.02;;;10.05;;
42702;SDS011;28341;52.064;4.920;2022-10-30T13:58:17;20.38;;;9.95;;
42702;SDS011;28341;52.064;4.920;2022-10-30T14:00:29;16.67;;;10.05;;
42702;SDS011;28341;52.064;4.920;2022-10-30T14:02:55;20.15;;;10.60;;
42702;SDS011;28341;52.064;4.920;2022-10-30T14:05:37;20.00;;;9.35;;
42702;SDS011;28341;52.064;4.920;2022-10-30T14:07:46;17.95;;;10.10;;
42702;SDS011;28341;52.064;4.920;2022-10-30T14:10:00;21.42;;;9.50;;
42702;SDS011;28341;52.064;4.920;2022-10-30T14:14:47;21.08;;;10.40;;
42702;SDS011;28341;52.064;4.920;2022-10-30T14:17:03;21.73;;;10.05;;
42702;SDS011;28341;52.064;4.920;2022-10-30T14:19:16;14.43;;;8.77;;
42702;SDS011;28341;52.064;4.920;2022-10-30T14:21:36;19.05;;;8.60;;
42702;SDS011;28341;52.064;4.920;2022-10-30T14:24:00;23.75;;;9.40;;
42702;SDS011;28341;52.064;4.920;2022-10-30T14:26:17;17.58;;;9.15;;
42702;SDS011;28341;52.064;4.920;2022-10-30T14:28:23;16.45;;;9.43;;
42702;SDS011;28341;52.064;4.920;2022-10-30T14:30:28;23.88;;;10.15;;
42702;SDS011;28341;52.064;4.920;2022-10-30T14:32:39;20.63;;;9.82;;
42702;SDS011;28341;52.064;4.920;2022-10-30T14:34:45;19.25;;;10.50;;
42702;SDS011;28341;52.064;4.920;2022-10-30T14:37:00;24.23;;;11.75;;
42702;SDS011;28341;52.064;4.920;2022-10-30T14:44:04;23.52;;;12.52;;
42702;SDS011;28341;52.064;4.920;2022-10-30T14:46:31;27.27;;;13.52;;
42702;SDS011;28341;52.064;4.920;2022-10-30T14:48:42;23.80;;;13.27;;
42702;SDS011;28341;52.064;4.920;2022-10-30T14:50:56;31.40;;;13.52;;
42702;SDS011;28341;52.064;4.920;2022-10-30T14:53:27;24.48;;;13.45;;
42702;SDS011;28341;52.064;4.920;2022-10-30T14:55:51;20.42;;;12.88;;
42702;SDS011;28341;52.064;4.920;2022-10-30T14:58:16;24.33;;;11.85;;
42702;SDS011;28341;52.064;4.920;2022-10-30T15:00:38;19.92;;;12.32;;
42702;SDS011;28341;52.064;4.920;2022-10-30T15:02:44;22.30;;;13.00;;
42702;SDS011;28341;52.064;4.920;2022-10-30T15:04:56;23.17;;;14.05;;
42702;SDS011;28341;52.064;4.920;2022-10-30T15:07:20;21.20;;;12.35;;
42702;SDS011;28341;52.064;4.920;2022-10-30T15:09:37;17.90;;;11.00;;
42702;SDS011;28341;52.064;4.920;2022-10-30T15:14:12;24.08;;;7.78;;
42702;SDS011;28341;52.064;4.920;2022-10-30T15:16:20;20.20;;;7.63;;
42702;SDS011;28341;52.064;4.920;2022-10-30T15:18:26;22.90;;;7.22;;
42702;SDS011;28341;52.064;4.920;2022-10-30T15:20:31;16.70;;;7.55;;
42702;SDS011;28341;52.064;4.920;2022-10-30T15:22:36;22.30;;;8.70;;
42702;SDS011;28341;52.064;4.920;2022-10-30T15:24:40;14.35;;;6.90;;
42702;SDS011;28341;52.064;4.920;2022-10-30T15:26:46;13.05;;;6.45;;
42702;SDS011;28341;52.064;4.920;2022-10-30T15:28:52;15.85;;;5.60;;
42702;SDS011;28341;52.064;4.920;2022-10-30T15:31:00;11.73;;;4.90;;
42702;SDS011;28341;52.064;4.920;2022-10-30T15:33:16;13.50;;;4.35;;
42702;SDS011;28341;52.064;4.920;2022-10-30T15:35:23;13.45;;;4.20;;
42702;SDS011;28341;52.064;4.920;2022-10-30T15:37:30;10.90;;;4.18;;
42702;SDS011;28341;52.064;4.920;2022-10-30T15:39:35;9.57;;;4.10;;
42702;SDS011;28341;52.064;4.920;2022-10-30T15:41:41;14.90;;;5.07;;
42702;SDS011;28341;52.064;4.920;2022-10-30T15:43:49;15.23;;;5.05;;
42702;SDS011;28341;52.064;4.920;2022-10-30T15:45:54;13.30;;;4.55;;
42702;SDS011;28341;52.064;4.920;2022-10-30T15:48:03;29.30;;;20.42;;
42702;SDS011;28341;52.064;4.920;2022-10-30T15:50:10;18.35;;;6.43;;
42702;SDS011;28341;52.064;4.920;2022-10-30T15:52:16;15.43;;;5.65;;
42702;SDS011;28341;52.064;4.920;2022-10-30T15:54:23;15.93;;;6.15;;
42702;SDS011;28341;52.064;4.920;2022-10-30T15:56:30;15.30;;;5.35;;
42702;SDS011;28341;52.064;4.920;2022-10-30T15:58:38;16.58;;;5.95;;
42702;SDS011;28341;52.064;4.920;2022-10-30T16:00:42;12.90;;;6.10;;
42702;SDS011;28341;52.064;4.920;2022-10-30T16:03:02;15.25;;;5.65;;
42702;SDS011;28341;52.064;4.920;2022-10-30T16:05:18;15.05;;;6.30;;
42702;SDS011;28341;52.064;4.920;2022-10-30T16:07:24;13.13;;;5.43;;
42702;SDS011;28341;52.064;4.920;2022-10-30T16:09:30;14.32;;;5.80;;
42702;SDS011;28341;52.064;4.920;2022-10-30T16:11:35;13.57;;;5.63;;
42702;SDS011;28341;52.064;4.920;2022-10-30T16:13:39;12.52;;;5.80;;
42702;SDS011;28341;52.064;4.920;2022-10-30T16:15:44;15.13;;;5.93;;
42702;SDS011;28341;52.064;4.920;2022-10-30T16:17:56;20.33;;;5.65;;
42702;SDS011;28341;52.064;4.920;2022-10-30T16:20:08;12.65;;;4.93;;
42702;SDS011;28341;52.064;4.920;2022-10-30T16:22:14;13.13;;;5.55;;
42702;SDS011;28341;52.064;4.920;2022-10-30T16:24:25;11.30;;;4.93;;
42702;SDS011;28341;52.064;4.920;2022-10-30T16:26:35;14.05;;;5.50;;
42702;SDS011;28341;52.064;4.920;2022-10-30T16:28:40;12.68;;;5.05;;
42702;SDS011;28341;52.064;4.920;2022-10-30T16:30:50;19.95;;;5.13;;
42702;SDS011;28341;52.064;4.920;2022-10-30T16:32:55;14.23;;;4.80;;
42702;SDS011;28341;52.064;4.920;2022-10-30T16:35:03;14.13;;;5.57;;
42702;SDS011;28341;52.064;4.920;2022-10-30T16:37:12;15.77;;;5.35;;
42702;SDS011;28341;52.064;4.920;2022-10-30T16:39:20;16.25;;;4.82;;
42702;SDS011;28341;52.064;4.920;2022-10-30T16:41:25;10.07;;;4.18;;
42702;SDS011;28341;52.064;4.920;2022-10-30T16:43:31;10.93;;;4.13;;
42702;SDS011;28341;52.064;4.920;2022-10-30T16:45:46;9.27;;;4.35;;
42702;SDS011;28341;52.064;4.920;2022-10-30T16:47:52;10.73;;;4.10;;
42702;SDS011;28341;52.064;4.920;2022-10-30T16:50:04;13.50;;;4.60;;
42702;SDS011;28341;52.064;4.920;2022-10-30T16:52:11;12.88;;;4.38;;
42702;SDS011;28341;52.064;4.920;2022-10-30T16:54:18;12.52;;;4.55;;
42702;SDS011;28341;52.064;4.920;2022-10-30T16:56:26;13.13;;;4.57;;
42702;SDS011;28341;52.064;4.920;2022-10-30T16:58:32;15.30;;;7.35;;
42702;SDS011;28341;52.064;4.920;2022-10-30T17:00:37;54.50;;;38.88;;
42702;SDS011;28341;52.064;4.920;2022-10-30T17:02:43;21.13;;;14.02;;
42702;SDS011;28341;52.064;4.920;2022-10-30T17:04:51;18.50;;;7.32;;
42702;SDS011;28341;52.064;4.920;2022-10-30T17:07:06;11.98;;;5.15;;
42702;SDS011;28341;52.064;4.920;2022-10-30T17:09:21;11.80;;;5.00;;
42702;SDS011;28341;52.064;4.920;2022-10-30T17:11:33;12.45;;;5.15;;
42702;SDS011;28341;52.064;4.920;2022-10-30T17:13:54;14.73;;;5.38;;
42702;SDS011;28341;52.064;4.920;2022-10-30T17:16:12;12.48;;;5.57;;
42702;SDS011;28341;52.064;4.920;2022-10-30T17:18:28;9.45;;;4.45;;
42702;SDS011;28341;52.064;4.920;2022-10-30T17:20:33;9.32;;;4.72;;
42702;SDS011;28341;52.064;4.920;2022-10-30T17:22:40;12.00;;;5.47;;
42702;SDS011;28341;52.064;4.920;2022-10-30T17:24:47;12.38;;;6.05;;
42702;SDS011;28341;52.064;4.920;2022-10-30T17:26:52;12.05;;;5.95;;
42702;SDS011;28341;52.064;4.920;2022-10-30T17:28:58;10.93;;;5.90;;
42702;SDS011;28341;52.064;4.920;2022-10-30T17:31:18;9.70;;;5.50;;
42702;SDS011;28341;52.064;4.920;2022-10-30T17:33:33;13.00;;;5.95;;
42702;SDS011;28341;52.064;4.920;2022-10-30T17:35:38;10.25;;;5.80;;
42702;SDS011;28341;52.064;4.920;2022-10-30T17:37:45;11.85;;;5.95;;
42702;SDS011;28341;52.064;4.920;2022-10-30T17:39:51;10.93;;;6.68;;
42702;SDS011;28341;52.064;4.920;2022-10-30T17:41:56;18.85;;;8.55;;
42702;SDS011;28341;52.064;4.920;2022-10-30T17:44:00;17.35;;;8.90;;
42702;SDS011;28341;52.064;4.920;2022-10-30T17:46:06;13.70;;;8.45;;
42702;SDS011;28341;52.064;4.920;2022-10-30T17:48:12;12.60;;;7.80;;
42702;SDS011;28341;52.064;4.920;2022-10-30T17:50:18;19.58;;;10.27;;
42702;SDS011;28341;52.064;4.920;2022-10-30T17:52:22;24.58;;;14.10;;
42702;SDS011;28341;52.064;4.920;2022-10-30T17:54:30;21.20;;;12.82;;
42702;SDS011;28341;52.064;4.920;2022-10-30T17:56:39;16.08;;;8.73;;
42702;SDS011;28341;52.064;4.920;2022-10-30T17:58:44;15.70;;;8.07;;
42702;SDS011;28341;52.064;4.920;2022-10-30T18:00:48;14.68;;;8.73;;
42702;SDS011;28341;52.064;4.920;2022-10-30T18:02:53;18.70;;;10.57;;
42702;SDS011;28341;52.064;4.920;2022-10-30T18:04:57;19.67;;;10.30;;
42702;SDS011;28341;52.064;4.920;2022-10-30T18:07:02;22.95;;;10.98;;
42702;SDS011;28341;52.064;4.920;2022-10-30T18:09:06;26.77;;;10.75;;
42702;SDS011;28341;52.064;4.920;2022-10-30T18:11:14;22.60;;;9.60;;
42702;SDS011;28341;52.064;4.920;2022-10-30T18:13:21;22.92;;;12.18;;
42702;SDS011;28341;52.064;4.920;2022-10-30T18:15:30;40.78;;;26.23;;
42702;SDS011;28341;52.064;4.920;2022-10-30T18:17:38;18.48;;;8.75;;
42702;SDS011;28341;52.064;4.920;2022-10-30T18:19:45;17.17;;;7.60;;
42702;SDS011;28341;52.064;4.920;2022-10-30T18:21:53;13.80;;;6.90;;
42702;SDS011;28341;52.064;4.920;2022-10-30T18:24:08;17.10;;;7.70;;
42702;SDS011;28341;52.064;4.920;2022-10-30T18:26:17;20.50;;;8.82;;
42702;SDS011;28341;52.064;4.920;2022-10-30T18:28:23;13.70;;;7.05;;
42702;SDS011;28341;52.064;4.920;2022-10-30T18:30:28;15.45;;;7.22;;
42702;SDS011;28341;52.064;4.920;2022-10-30T18:32:32;14.32;;;7.40;;
42702;SDS011;28341;52.064;4.920;2022-10-30T18:34:37;15.13;;;7.88;;
42702;SDS011;28341;52.064;4.920;2022-10-30T18:36:42;17.90;;;7.82;;
42702;SDS011;28341;52.064;4.920;2022-10-30T18:38:47;18.13;;;8.95;;
42702;SDS011;28341;52.064;4.920;2022-10-30T18:40:53;18.58;;;8.80;;
42702;SDS011;28341;52.064;4.920;2022-10-30T18:43:01;19.02;;;9.10;;
42702;SDS011;28341;52.064;4.920;2022-10-30T18:45:16;17.00;;;8.63;;
42702;SDS011;28341;52.064;4.920;2022-10-30T18:47:24;16.77;;;8.70;;
42702;SDS011;28341;52.064;4.920;2022-10-30T18:49:30;17.35;;;8.90;;
42702;SDS011;28341;52.064;4.920;2022-10-30T18:51:35;16.83;;;8.40;;
42702;SDS011;28341;52.064;4.920;2022-10-30T18:53:41;14.95;;;8.45;;
42702;SDS011;28341;52.064;4.920;2022-10-30T18:55:50;18.08;;;9.20;;
42702;SDS011;28341;52.064;4.920;2022-10-30T18:57:55;20.27;;;8.98;;
42702;SDS011;28341;52.064;4.920;2022-10-30T19:00:02;17.45;;;8.75;;
42702;SDS011;28341;52.064;4.920;2022-10-30T19:02:12;21.77;;;8.68;;
42702;SDS011;28341;52.064;4.920;2022-10-30T19:04:23;14.77;;;7.68;;
42702;SDS011;28341;52.064;4.920;2022-10-30T19:06:31;14.10;;;7.15;;
42702;SDS011;28341;52.064;4.920;2022-10-30T19:08:37;17.67;;;7.32;;
42702;SDS011;28341;52.064;4.920;2022-10-30T19:10:42;11.85;;;7.40;;
42702;SDS011;28341;52.064;4.920;2022-10-30T19:12:48;14.52;;;7.55;;
42702;SDS011;28341;52.064;4.920;2022-10-30T19:15:07;15.13;;;7.55;;
42702;SDS011;28341;52.064;4.920;2022-10-30T19:17:18;11.02;;;7.20;;
42702;SDS011;28341;52.064;4.920;2022-10-30T19:19:22;12.05;;;7.28;;
42702;SDS011;28341;52.064;4.920;2022-10-30T19:21:27;15.43;;;8.38;;
42702;SDS011;28341;52.064;4.920;2022-10-30T19:23:32;13.10;;;7.72;;
42702;SDS011;28341;52.064;4.920;2022-10-30T19:25:37;15.05;;;7.80;;
42702;SDS011;28341;52.064;4.920;2022-10-30T19:27:43;11.30;;;7.53;;
42702;SDS011;28341;52.064;4.920;2022-10-30T19:29:48;95.45;;;81.22;;
42702;SDS011;28341;52.064;4.920;2022-10-30T19:31:55;171.68;;;140.80;;
42702;SDS011;28341;52.064;4.920;2022-10-30T19:33:59;48.58;;;36.28;;
42702;SDS011;28341;52.064;4.920;2022-10-30T19:36:04;18.17;;;10.70;;
42702;SDS011;28341;52.064;4.920;2022-10-30T19:38:25;11.70;;;7.38;;
42702;SDS011;28341;52.064;4.920;2022-10-30T19:40:31;9.45;;;6.55;;
42702;SDS011;28341;52.064;4.920;2022-10-30T19:42:37;10.63;;;6.00;;
42702;SDS011;28341;52.064;4.920;2022-10-30T19:44:41;9.80;;;5.30;;
42702;SDS011;28341;52.064;4.920;2022-10-30T19:46:45;13.60;;;5.88;;
42702;SDS011;28341;52.064;4.920;2022-10-30T19:48:52;11.00;;;5.15;;
42702;SDS011;28341;52.064;4.920;2022-10-30T19:50:57;9.23;;;5.13;;
42702;SDS011;28341;52.064;4.920;2022-10-30T19:53:02;10.02;;;4.60;;
42702;SDS011;28341;52.064;4.920;2022-10-30T19:55:07;10.05;;;4.85;;
42702;SDS011;28341;52.064;4.920;2022-10-30T19:57:12;11.73;;;4.97;;
42702;SDS011;28341;52.064;4.920;2022-10-30T19:59:17;12.48;;;4.97;;
42702;SDS011;28341;52.064;4.920;2022-10-30T20:01:27;7.40;;;4.35;;
42702;SDS011;28341;52.064;4.920;2022-10-30T20:03:40;7.22;;;4.63;;
42702;SDS011;28341;52.064;4.920;2022-10-30T20:05:48;10.65;;;4.68;;
42702;SDS011;28341;52.064;4.920;2022-10-30T20:07:55;13.75;;;5.88;;
42702;SDS011;28341;52.064;4.920;2022-10-30T20:10:04;13.20;;;5.40;;
42702;SDS011;28341;52.064;4.920;2022-10-30T20:12:20;12.77;;;5.03;;
42702;SDS011;28341;52.064;4.920;2022-10-30T20:14:26;8.20;;;4.78;;
42702;SDS011;28341;52.064;4.920;2022-10-30T20:16:31;10.88;;;4.55;;
42702;SDS011;28341;52.064;4.920;2022-10-30T20:18:35;10.43;;;4.72;;
42702;SDS011;28341;52.064;4.920;2022-10-30T20:20:44;8.98;;;3.90;;
42702;SDS011;28341;52.064;4.920;2022-10-30T20:22:53;12.88;;;4.40;;
42702;SDS011;28341;52.064;4.920;2022-10-30T20:24:58;9.13;;;4.18;;
42702;SDS011;28341;52.064;4.920;2022-10-30T20:27:02;10.68;;;5.35;;
42702;SDS011;28341;52.064;4.920;2022-10-30T20:29:07;7.75;;;4.88;;
42702;SDS011;28341;52.064;4.920;2022-10-30T20:31:12;7.22;;;5.03;;
42702;SDS011;28341;52.064;4.920;2022-10-30T20:33:16;7.63;;;5.03;;
42702;SDS011;28341;52.064;4.920;2022-10-30T20:35:21;13.32;;;5.70;;
42702;SDS011;28341;52.064;4.920;2022-10-30T20:37:29;13.10;;;5.65;;
42702;SDS011;28341;52.064;4.920;2022-10-30T20:39:34;8.93;;;5.00;;
42702;SDS011;28341;52.064;4.920;2022-10-30T20:41:38;6.03;;;4.50;;
42702;SDS011;28341;52.064;4.920;2022-10-30T20:43:43;7.72;;;4.53;;
42702;SDS011;28341;52.064;4.920;2022-10-30T20:45:49;7.82;;;5.03;;
42702;SDS011;28341;52.064;4.920;2022-10-30T20:47:53;12.25;;;5.10;;
42702;SDS011;28341;52.064;4.920;2022-10-30T20:49:58;10.23;;;4.90;;
42702;SDS011;28341;52.064;4.920;2022-10-30T20:52:02;6.75;;;4.82;;
42702;SDS011;28341;52.064;4.920;2022-10-30T20:54:10;8.10;;;4.70;;
42702;SDS011;28341;52.064;4.920;2022-10-30T20:56:14;12.98;;;9.48;;
42702;SDS011;28341;52.064;4.920;2022-10-30T20:58:19;23.35;;;16.63;;
42702;SDS011;28341;52.064;4.920;2022-10-30T21:00:24;19.13;;;11.95;;
42702;SDS011;28341;52.064;4.920;2022-10-30T21:02:28;12.52;;;8.55;;
42702;SDS011;28341;52.064;4.920;2022-10-30T21:04:33;7.95;;;6.40;;
42702;SDS011;28341;52.064;4.920;2022-10-30T21:06:37;8.23;;;5.13;;
42702;SDS011;28341;52.064;4.920;2022-10-30T21:08:42;8.35;;;5.05;;
42702;SDS011;28341;52.064;4.920;2022-10-30T21:10:49;9.90;;;5.45;;
42702;SDS011;28341;52.064;4.920;2022-10-30T21:12:53;10.63;;;5.68;;
42702;SDS011;28341;52.064;4.920;2022-10-30T21:14:58;7.70;;;4.68;;
42702;SDS011;28341;52.064;4.920;2022-10-30T21:17:07;9.55;;;5.63;;
42702;SDS011;28341;52.064;4.920;2022-10-30T21:19:12;9.57;;;5.93;;
42702;SDS011;28341;52.064;4.920;2022-10-30T21:21:16;7.32;;;5.38;;
42702;SDS011;28341;52.064;4.920;2022-10-30T21:23:21;10.05;;;5.43;;
42702;SDS011;28341;52.064;4.920;2022-10-30T21:25:26;7.50;;;5.18;;
42702;SDS011;28341;52.064;4.920;2022-10-30T21:27:34;9.18;;;4.90;;
42702;SDS011;28341;52.064;4.920;2022-10-30T21:29:38;12.10;;;9.10;;
42702;SDS011;28341;52.064;4.920;2022-10-30T21:31:45;29.73;;;19.40;;
42702;SDS011;28341;52.064;4.920;2022-10-30T21:33:49;25.98;;;18.63;;
42702;SDS011;28341;52.064;4.920;2022-10-30T21:35:54;17.38;;;13.18;;
42702;SDS011;28341;52.064;4.920;2022-10-30T21:37:59;13.93;;;8.38;;
42702;SDS011;28341;52.064;4.920;2022-10-30T21:40:05;13.63;;;7.25;;
42702;SDS011;28341;52.064;4.920;2022-10-30T21:42:11;12.73;;;7.65;;
42702;SDS011;28341;52.064;4.920;2022-10-30T21:44:18;13.23;;;8.80;;
42702;SDS011;28341;52.064;4.920;2022-10-30T21:46:24;13.68;;;8.25;;
42702;SDS011;28341;52.064;4.920;2022-10-30T21:48:30;12.02;;;7.50;;
42702;SDS011;28341;52.064;4.920;2022-10-30T21:50:34;8.73;;;6.95;;
42702;SDS011;28341;52.064;4.920;2022-10-30T21:52:39;14.75;;;8.18;;
42702;SDS011;28341;52.064;4.920;2022-10-30T21:54:43;11.10;;;7.55;;
42702;SDS011;28341;52.064;4.920;2022-10-30T21:56:48;10.38;;;7.40;;
42702;SDS011;28341;52.064;4.920;2022-10-30T21:58:53;11.95;;;7.35;;
42702;SDS011;28341;52.064;4.920;2022-10-30T22:01:01;13.68;;;8.07;;
42702;SDS011;28341;52.064;4.920;2022-10-30T22:03:07;20.45;;;12.00;;
42702;SDS011;28341;52.064;4.920;2022-10-30T22:05:13;18.65;;;11.57;;